sensor_id;sensor_type;location;lat;lon;timestamp;pressure;altitude;pressure_sealevel;temperature;humidity
40838;BME280;29632;49.168;9.848;2022-12-07T00:01:20;96783.78;;;8.66;53.22
40838;BME280;29632;49.168;9.848;2022-12-07T00:03:47;96784.75;;;8.65;53.57
40838;BME280;29632;49.168;9.848;2022-12-07T00:06:15;96781.19;;;8.66;53.00
40838;BME280;29632;49.168;9.848;2022-12-07T00:08:41;96787.06;;;8.68;52.98
40838;BME280;29632;49.168;9.848;2022-12-07T00:11:14;96782.00;;;8.66;53.32
40838;BME280;29632;49.168;9.848;2022-12-07T00:13:41;96785.69;;;8.64;53.17
40838;BME280;29632;49.168;9.848;2022-12-07T00:16:17;96782.16;;;8.65;53.17
40838;BME280;29632;49.168;9.848;2022-12-07T00:18:44;96781.88;;;8.68;53.59
40838;BME280;29632;49.168;9.848;2022-12-07T00:21:12;96771.22;;;8.71;53.20
40838;BME280;29632;49.168;9.848;2022-12-07T00:23:39;96769.44;;;8.72;53.23
40838;BME280;29632;49.168;9.848;2022-12-07T00:26:13;96770.28;;;8.72;53.51
40838;BME280;29632;49.168;9.848;2022-12-07T00:28:39;96763.56;;;8.69;53.29
40838;BME280;29632;49.168;9.848;2022-12-07T00:31:07;96759.75;;;8.64;53.37
40838;BME280;29632;49.168;9.848;2022-12-07T00:33:34;96762.72;;;8.59;53.43
40838;BME280;29632;49.168;9.848;2022-12-07T00:36:00;96761.91;;;8.59;53.47
40838;BME280;29632;49.168;9.848;2022-12-07T00:38:31;96759.44;;;8.57;53.52
40838;BME280;29632;49.168;9.848;2022-12-07T00:41:00;96761.09;;;8.58;53.23
40838;BME280;29632;49.168;9.848;2022-12-07T00:43:27;96762.84;;;8.58;53.55
40838;BME280;29632;49.168;9.848;2022-12-07T00:45:53;96764.75;;;8.56;53.25
40838;BME280;29632;49.168;9.848;2022-12-07T00:48:19;96756.28;;;8.54;53.10
40838;BME280;29632;49.168;9.848;2022-12-07T00:50:45;96760.91;;;8.50;53.06
40838;BME280;29632;49.168;9.848;2022-12-07T00:53:11;96764.63;;;8.47;53.67
40838;BME280;29632;49.168;9.848;2022-12-07T00:55:36;96758.72;;;8.45;53.32
40838;BME280;29632;49.168;9.848;2022-12-07T00:58:03;96760.22;;;8.48;53.54
40838;BME280;29632;49.168;9.848;2022-12-07T01:00:29;96761.72;;;8.50;53.66
40838;BME280;29632;49.168;9.848;2022-12-07T01:02:54;96755.47;;;8.53;53.70
40838;BME280;29632;49.168;9.848;2022-12-07T01:05:20;96760.53;;;8.55;53.37
40838;BME280;29632;49.168;9.848;2022-12-07T01:07:46;96764.75;;;8.56;53.16
40838;BME280;29632;49.168;9.848;2022-12-07T01:10:13;96770.50;;;8.59;53.52
40838;BME280;29632;49.168;9.848;2022-12-07T01:12:39;96767.91;;;8.59;52.98
40838;BME280;29632;49.168;9.848;2022-12-07T01:15:05;96768.88;;;8.58;52.90
40838;BME280;29632;49.168;9.848;2022-12-07T01:17:31;96770.50;;;8.59;53.15
40838;BME280;29632;49.168;9.848;2022-12-07T01:19:56;96772.97;;;8.61;53.32
40838;BME280;29632;49.168;9.848;2022-12-07T01:22:22;96766.28;;;8.58;52.84
40838;BME280;29632;49.168;9.848;2022-12-07T01:24:48;96763.00;;;8.56;53.62
40838;BME280;29632;49.168;9.848;2022-12-07T01:27:14;96775.69;;;8.49;53.11
40838;BME280;29632;49.168;9.848;2022-12-07T01:29:39;96772.66;;;8.44;53.54
40838;BME280;29632;49.168;9.848;2022-12-07T01:32:05;96769.38;;;8.42;53.69
40838;BME280;29632;49.168;9.848;2022-12-07T01:34:31;96767.59;;;8.43;53.40
40838;BME280;29632;49.168;9.848;2022-12-07T01:36:57;96768.41;;;8.43;53.40
40838;BME280;29632;49.168;9.848;2022-12-07T01:39:23;96771.69;;;8.45;53.34
40838;BME280;29632;49.168;9.848;2022-12-07T01:41:49;96771.81;;;8.44;52.86
40838;BME280;29632;49.168;9.848;2022-12-07T01:44:22;96784.06;;;8.42;53.44
40838;BME280;29632;49.168;9.848;2022-12-07T01:49:36;96775.84;;;8.37;53.59
40838;BME280;29632;49.168;9.848;2022-12-07T01:52:23;96774.22;;;8.36;53.48
40838;BME280;29632;49.168;9.848;2022-12-07T01:54:51;96771.06;;;8.32;53.35
40838;BME280;29632;49.168;9.848;2022-12-07T01:57:17;96767.78;;;8.30;53.13
40838;BME280;29632;49.168;9.848;2022-12-07T01:59:47;96768.47;;;8.32;53.34
40838;BME280;29632;49.168;9.848;2022-12-07T02:02:18;96766.44;;;8.36;53.37
40838;BME280;29632;49.168;9.848;2022-12-07T02:04:45;96767.00;;;8.39;53.19
40838;BME280;29632;49.168;9.848;2022-12-07T02:07:11;96764.53;;;8.38;52.96
40838;BME280;29632;49.168;9.848;2022-12-07T02:09:37;96767.13;;;8.38;52.88
40838;BME280;29632;49.168;9.848;2022-12-07T02:12:03;96767.94;;;8.38;52.86
40838;BME280;29632;49.168;9.848;2022-12-07T02:14:29;96773.25;;;8.37;52.63
40838;BME280;29632;49.168;9.848;2022-12-07T02:17:02;96771.63;;;8.36;53.10
40838;BME280;29632;49.168;9.848;2022-12-07T02:19:51;96767.38;;;8.35;53.14
40838;BME280;29632;49.168;9.848;2022-12-07T02:27:56;96762.66;;;8.19;52.93
40838;BME280;29632;49.168;9.848;2022-12-07T02:30:28;96755.41;;;8.12;53.02
40838;BME280;29632;49.168;9.848;2022-12-07T02:35:35;96755.53;;;8.11;52.96
40838;BME280;29632;49.168;9.848;2022-12-07T02:38:16;96752.94;;;8.11;53.14
40838;BME280;29632;49.168;9.848;2022-12-07T02:40:52;96749.25;;;8.13;53.27
40838;BME280;29632;49.168;9.848;2022-12-07T02:43:27;96743.94;;;8.15;53.35
40838;BME280;29632;49.168;9.848;2022-12-07T02:45:56;96743.38;;;8.11;52.87
40838;BME280;29632;49.168;9.848;2022-12-07T02:48:23;96728.31;;;8.05;52.58
40838;BME280;29632;49.168;9.848;2022-12-07T02:50:51;96727.47;;;7.95;52.70
40838;BME280;29632;49.168;9.848;2022-12-07T02:53:33;96724.00;;;7.85;53.45
40838;BME280;29632;49.168;9.848;2022-12-07T02:58:40;96721.28;;;7.65;53.15
40838;BME280;29632;49.168;9.848;2022-12-07T03:01:34;96718.44;;;7.47;52.89
40838;BME280;29632;49.168;9.848;2022-12-07T03:04:18;96720.66;;;7.31;53.63
40838;BME280;29632;49.168;9.848;2022-12-07T03:12:48;96716.94;;;7.24;54.02
40838;BME280;29632;49.168;9.848;2022-12-07T03:15:27;96717.50;;;7.27;53.48
40838;BME280;29632;49.168;9.848;2022-12-07T03:17:57;96715.47;;;7.31;52.82
40838;BME280;29632;49.168;9.848;2022-12-07T03:20:25;96707.81;;;7.29;53.15
40838;BME280;29632;49.168;9.848;2022-12-07T03:22:52;96720.22;;;7.26;53.07
40838;BME280;29632;49.168;9.848;2022-12-07T03:25:20;96710.66;;;7.26;53.30
40838;BME280;29632;49.168;9.848;2022-12-07T03:27:53;96711.47;;;7.27;53.57
40838;BME280;29632;49.168;9.848;2022-12-07T03:30:33;96706.56;;;7.24;53.16
40838;BME280;29632;49.168;9.848;2022-12-07T03:33:04;96708.31;;;7.23;52.66
40838;BME280;29632;49.168;9.848;2022-12-07T03:35:36;96709.03;;;7.25;53.32
40838;BME280;29632;49.168;9.848;2022-12-07T03:38:31;96693.03;;;7.20;53.24
40838;BME280;29632;49.168;9.848;2022-12-07T03:41:15;96695.88;;;7.17;52.82
40838;BME280;29632;49.168;9.848;2022-12-07T03:43:41;96695.31;;;7.13;53.38
40838;BME280;29632;49.168;9.848;2022-12-07T03:49:28;96710.59;;;7.16;53.29
40838;BME280;29632;49.168;9.848;2022-12-07T03:52:00;96713.63;;;7.22;53.34
40838;BME280;29632;49.168;9.848;2022-12-07T03:54:34;96713.94;;;7.28;53.20
40838;BME280;29632;49.168;9.848;2022-12-07T03:57:02;96715.25;;;7.34;53.29
40838;BME280;29632;49.168;9.848;2022-12-07T03:59:29;96715.66;;;7.39;53.04
40838;BME280;29632;49.168;9.848;2022-12-07T04:01:58;96719.66;;;7.43;52.64
40838;BME280;29632;49.168;9.848;2022-12-07T04:04:27;96716.66;;;7.48;53.09
40838;BME280;29632;49.168;9.848;2022-12-07T04:06:53;96717.84;;;7.55;52.77
40838;BME280;29632;49.168;9.848;2022-12-07T04:09:19;96711.69;;;7.56;52.47
40838;BME280;29632;49.168;9.848;2022-12-07T04:11:45;96709.91;;;7.56;52.57
40838;BME280;29632;49.168;9.848;2022-12-07T04:14:10;96705.69;;;7.55;52.84
40838;BME280;29632;49.168;9.848;2022-12-07T04:16:46;96714.28;;;7.56;52.92
40838;BME280;29632;49.168;9.848;2022-12-07T04:19:12;96711.44;;;7.59;52.85
40838;BME280;29632;49.168;9.848;2022-12-07T04:21:38;96709.66;;;7.60;52.69
40838;BME280;29632;49.168;9.848;2022-12-07T04:24:04;96702.72;;;7.60;52.79
40838;BME280;29632;49.168;9.848;2022-12-07T04:26:30;96705.31;;;7.60;52.69
40838;BME280;29632;49.168;9.848;2022-12-07T04:28:55;96709.91;;;7.56;53.07
40838;BME280;29632;49.168;9.848;2022-12-07T04:31:21;96721.25;;;7.55;52.86
40838;BME280;29632;49.168;9.848;2022-12-07T04:33:47;96725.47;;;7.56;52.77
40838;BME280;29632;49.168;9.848;2022-12-07T04:36:12;96719.34;;;7.57;53.22
40838;BME280;29632;49.168;9.848;2022-12-07T04:38:38;96709.09;;;7.56;52.72
40838;BME280;29632;49.168;9.848;2022-12-07T04:41:05;96713.91;;;7.61;53.16
40838;BME280;29632;49.168;9.848;2022-12-07T04:43:31;96703.28;;;7.64;52.63
40838;BME280;29632;49.168;9.848;2022-12-07T04:45:57;96703.28;;;7.64;53.17
40838;BME280;29632;49.168;9.848;2022-12-07T04:48:22;96699.72;;;7.65;53.06
40838;BME280;29632;49.168;9.848;2022-12-07T04:50:48;96703.28;;;7.64;52.74
40838;BME280;29632;49.168;9.848;2022-12-07T04:53:17;96706.00;;;7.62;53.20
40838;BME280;29632;49.168;9.848;2022-12-07T04:55:44;96699.16;;;7.61;53.05
40838;BME280;29632;49.168;9.848;2022-12-07T04:58:10;96696.44;;;7.63;52.58
40838;BME280;29632;49.168;9.848;2022-12-07T05:00:35;96700.53;;;7.65;53.41
40838;BME280;29632;49.168;9.848;2022-12-07T05:03:01;96707.25;;;7.68;53.42
40838;BME280;29632;49.168;9.848;2022-12-07T05:05:26;96705.47;;;7.68;53.12
40838;BME280;29632;49.168;9.848;2022-12-07T05:07:52;96705.22;;;7.71;53.02
40838;BME280;29632;49.168;9.848;2022-12-07T05:10:18;96697.09;;;7.76;52.96
40838;BME280;29632;49.168;9.848;2022-12-07T05:12:43;96703.75;;;7.79;53.32
40838;BME280;29632;49.168;9.848;2022-12-07T05:15:09;96707.75;;;7.83;52.97
40838;BME280;29632;49.168;9.848;2022-12-07T05:17:35;96702.31;;;7.86;52.91
40838;BME280;29632;49.168;9.848;2022-12-07T05:20:00;96701.25;;;7.88;52.63
40838;BME280;29632;49.168;9.848;2022-12-07T05:22:26;96704.41;;;7.92;52.75
40838;BME280;29632;49.168;9.848;2022-12-07T05:24:56;96709.34;;;7.95;52.52
40838;BME280;29632;49.168;9.848;2022-12-07T05:27:22;96710.97;;;7.96;52.53
40838;BME280;29632;49.168;9.848;2022-12-07T05:29:49;96700.72;;;7.94;52.71
40838;BME280;29632;49.168;9.848;2022-12-07T05:32:15;96702.75;;;7.91;52.31
40838;BME280;29632;49.168;9.848;2022-12-07T05:34:41;96701.38;;;7.87;52.68
40838;BME280;29632;49.168;9.848;2022-12-07T05:37:07;96698.09;;;7.85;52.65
40838;BME280;29632;49.168;9.848;2022-12-07T05:39:32;96704.22;;;7.84;53.18
40838;BME280;29632;49.168;9.848;2022-12-07T05:41:58;96688.91;;;7.81;52.94
40838;BME280;29632;49.168;9.848;2022-12-07T05:44:40;96701.31;;;7.77;52.94
40838;BME280;29632;49.168;9.848;2022-12-07T05:47:05;96704.13;;;7.74;53.03
40838;BME280;29632;49.168;9.848;2022-12-07T05:49:31;96702.50;;;7.73;53.05
40838;BME280;29632;49.168;9.848;2022-12-07T05:51:57;96693.22;;;7.70;53.36
40838;BME280;29632;49.168;9.848;2022-12-07T05:54:22;96696.78;;;7.69;53.10
40838;BME280;29632;49.168;9.848;2022-12-07T05:56:48;96700.28;;;7.68;53.21
40838;BME280;29632;49.168;9.848;2022-12-07T05:59:15;96697.00;;;7.66;53.61
40838;BME280;29632;49.168;9.848;2022-12-07T06:01:53;96694.94;;;7.60;53.16
40838;BME280;29632;49.168;9.848;2022-12-07T06:04:19;96696.25;;;7.54;53.51
40838;BME280;29632;49.168;9.848;2022-12-07T06:06:45;96704.56;;;7.48;53.67
40838;BME280;29632;49.168;9.848;2022-12-07T06:09:10;96703.41;;;7.41;53.58
40838;BME280;29632;49.168;9.848;2022-12-07T06:11:38;96699.28;;;7.38;53.41
40838;BME280;29632;49.168;9.848;2022-12-07T06:14:23;96699.53;;;7.35;53.51
40838;BME280;29632;49.168;9.848;2022-12-07T06:16:48;96703.22;;;7.33;53.74
40838;BME280;29632;49.168;9.848;2022-12-07T06:19:14;96705.81;;;7.33;53.78
40838;BME280;29632;49.168;9.848;2022-12-07T06:21:40;96704.88;;;7.34;53.47
40838;BME280;29632;49.168;9.848;2022-12-07T06:24:06;96709.34;;;7.32;53.35
40838;BME280;29632;49.168;9.848;2022-12-07T06:26:32;96711.22;;;7.30;53.77
40838;BME280;29632;49.168;9.848;2022-12-07T06:28:57;96706.16;;;7.28;53.28
40838;BME280;29632;49.168;9.848;2022-12-07T06:31:23;96713.81;;;7.30;53.25
40838;BME280;29632;49.168;9.848;2022-12-07T06:33:48;96717.09;;;7.32;53.17
40838;BME280;29632;49.168;9.848;2022-12-07T06:36:14;96718.63;;;7.34;53.84
40838;BME280;29632;49.168;9.848;2022-12-07T06:38:40;96709.09;;;7.35;53.41
40838;BME280;29632;49.168;9.848;2022-12-07T06:41:06;96714.97;;;7.37;53.71
40838;BME280;29632;49.168;9.848;2022-12-07T06:43:32;96715.09;;;7.35;53.39
40838;BME280;29632;49.168;9.848;2022-12-07T06:45:58;96711.56;;;7.36;53.34
40838;BME280;29632;49.168;9.848;2022-12-07T06:48:23;96707.06;;;7.38;53.95
40838;BME280;29632;49.168;9.848;2022-12-07T06:50:49;96708.59;;;7.41;53.83
40838;BME280;29632;49.168;9.848;2022-12-07T06:53:15;96708.19;;;7.46;53.16
40838;BME280;29632;49.168;9.848;2022-12-07T06:55:41;96700.88;;;7.51;52.96
40838;BME280;29632;49.168;9.848;2022-12-07T06:58:06;96711.69;;;7.56;53.44
40838;BME280;29632;49.168;9.848;2022-12-07T07:00:32;96712.25;;;7.60;53.38
40838;BME280;29632;49.168;9.848;2022-12-07T07:03:00;96705.16;;;7.62;53.09
40838;BME280;29632;49.168;9.848;2022-12-07T07:05:25;96716.38;;;7.62;53.24
40838;BME280;29632;49.168;9.848;2022-12-07T07:07:51;96715.16;;;7.66;53.08
40838;BME280;29632;49.168;9.848;2022-12-07T07:10:17;96713.25;;;7.68;52.92
40838;BME280;29632;49.168;9.848;2022-12-07T07:12:42;96714.78;;;7.71;53.21
40838;BME280;29632;49.168;9.848;2022-12-07T07:15:08;96713.69;;;7.73;52.80
40838;BME280;29632;49.168;9.848;2022-12-07T07:17:35;96711.91;;;7.74;52.89
40838;BME280;29632;49.168;9.848;2022-12-07T07:20:00;96714.25;;;7.77;53.29
40838;BME280;29632;49.168;9.848;2022-12-07T07:22:26;96708.13;;;7.78;52.83
40838;BME280;29632;49.168;9.848;2022-12-07T07:24:51;96709.06;;;7.77;52.89
40838;BME280;29632;49.168;9.848;2022-12-07T07:27:17;96705.66;;;7.77;52.66
40838;BME280;29632;49.168;9.848;2022-12-07T07:29:43;96721.22;;;7.77;53.09
40838;BME280;29632;49.168;9.848;2022-12-07T07:32:08;96724.63;;;7.77;52.68
40838;BME280;29632;49.168;9.848;2022-12-07T07:34:34;96719.44;;;7.77;52.73
40838;BME280;29632;49.168;9.848;2022-12-07T07:37:00;96732.28;;;7.79;53.49
40838;BME280;29632;49.168;9.848;2022-12-07T07:39:25;96729.69;;;7.79;52.97
40838;BME280;29632;49.168;9.848;2022-12-07T07:41:51;96727.09;;;7.79;53.37
40838;BME280;29632;49.168;9.848;2022-12-07T07:44:16;96729.44;;;7.82;53.46
40838;BME280;29632;49.168;9.848;2022-12-07T07:46:42;96729.69;;;7.79;53.22
40838;BME280;29632;49.168;9.848;2022-12-07T07:49:09;96728.19;;;7.76;52.55
40838;BME280;29632;49.168;9.848;2022-12-07T07:51:36;96731.47;;;7.78;53.23
40838;BME280;29632;49.168;9.848;2022-12-07T07:54:02;96731.72;;;7.75;52.86
40838;BME280;29632;49.168;9.848;2022-12-07T07:56:28;96736.34;;;7.71;53.55
40838;BME280;29632;49.168;9.848;2022-12-07T07:58:54;96737.44;;;7.69;53.02
40838;BME280;29632;49.168;9.848;2022-12-07T08:01:20;96734.84;;;7.69;53.02
40838;BME280;29632;49.168;9.848;2022-12-07T08:03:48;96734.69;;;7.70;53.07
40838;BME280;29632;49.168;9.848;2022-12-07T08:06:14;96737.28;;;7.70;53.59
40838;BME280;29632;49.168;9.848;2022-12-07T08:08:40;96737.28;;;7.70;53.03
40838;BME280;29632;49.168;9.848;2022-12-07T08:11:06;96740.03;;;7.69;53.33
40838;BME280;29632;49.168;9.848;2022-12-07T08:13:32;96742.28;;;7.62;53.30
40838;BME280;29632;49.168;9.848;2022-12-07T08:15:58;96747.16;;;7.55;53.35
40838;BME280;29632;49.168;9.848;2022-12-07T08:18:28;96746.59;;;7.52;53.47
40838;BME280;29632;49.168;9.848;2022-12-07T08:20:59;96746.94;;;7.47;53.41
40838;BME280;29632;49.168;9.848;2022-12-07T08:23:25;96749.66;;;7.46;53.33
40838;BME280;29632;49.168;9.848;2022-12-07T08:25:51;96752.13;;;7.47;53.50
40838;BME280;29632;49.168;9.848;2022-12-07T08:28:17;96745.16;;;7.48;53.73
40838;BME280;29632;49.168;9.848;2022-12-07T08:30:42;96741.66;;;7.49;52.92
40838;BME280;29632;49.168;9.848;2022-12-07T08:33:09;96745.78;;;7.51;53.42
40838;BME280;29632;49.168;9.848;2022-12-07T08:35:35;96749.75;;;7.55;53.75
40838;BME280;29632;49.168;9.848;2022-12-07T08:38:01;96745.13;;;7.59;52.86
40838;BME280;29632;49.168;9.848;2022-12-07T08:40:27;96745.94;;;7.60;52.97
40838;BME280;29632;49.168;9.848;2022-12-07T08:42:53;96746.91;;;7.59;53.17
40838;BME280;29632;49.168;9.848;2022-12-07T08:45:20;96741.59;;;7.60;52.90
40838;BME280;29632;49.168;9.848;2022-12-07T08:47:55;96745.81;;;7.61;53.16
40838;BME280;29632;49.168;9.848;2022-12-07T08:50:22;96743.91;;;7.63;52.95
40838;BME280;29632;49.168;9.848;2022-12-07T08:52:50;96746.38;;;7.65;52.97
40838;BME280;29632;49.168;9.848;2022-12-07T08:55:17;96744.63;;;7.65;52.85
40838;BME280;29632;49.168;9.848;2022-12-07T08:57:42;96735.91;;;7.66;52.87
40838;BME280;29632;49.168;9.848;2022-12-07T09:00:09;96738.50;;;7.66;52.74
40838;BME280;29632;49.168;9.848;2022-12-07T09:02:34;96743.44;;;7.69;53.10
40838;BME280;29632;49.168;9.848;2022-12-07T09:05:00;96746.59;;;7.73;53.39
40838;BME280;29632;49.168;9.848;2022-12-07T09:07:26;96749.06;;;7.74;52.69
40838;BME280;29632;49.168;9.848;2022-12-07T09:09:51;96747.72;;;7.80;52.54
40838;BME280;29632;49.168;9.848;2022-12-07T09:12:17;96749.94;;;7.85;52.79
40838;BME280;29632;49.168;9.848;2022-12-07T09:14:43;96744.63;;;7.86;53.05
40838;BME280;29632;49.168;9.848;2022-12-07T09:17:10;96750.09;;;7.93;52.94
40838;BME280;29632;49.168;9.848;2022-12-07T09:19:36;96746.19;;;7.99;52.69
40838;BME280;29632;49.168;9.848;2022-12-07T09:22:02;96750.28;;;8.01;52.68
40838;BME280;29632;49.168;9.848;2022-12-07T09:24:27;96742.75;;;7.98;52.54
40838;BME280;29632;49.168;9.848;2022-12-07T09:26:53;96745.47;;;7.97;53.05
40838;BME280;29632;49.168;9.848;2022-12-07T09:29:19;96744.66;;;7.96;53.27
40838;BME280;29632;49.168;9.848;2022-12-07T09:31:44;96742.75;;;7.98;52.73
40838;BME280;29632;49.168;9.848;2022-12-07T09:34:10;96745.22;;;8.00;52.19
40838;BME280;29632;49.168;9.848;2022-12-07T09:36:36;96743.59;;;7.99;52.76
40838;BME280;29632;49.168;9.848;2022-12-07T09:39:02;96751.22;;;8.00;52.80
40838;BME280;29632;49.168;9.848;2022-12-07T09:41:30;96751.94;;;8.02;52.83
40838;BME280;29632;49.168;9.848;2022-12-07T09:44:07;96753.31;;;8.06;52.72
40838;BME280;29632;49.168;9.848;2022-12-07T09:46:39;96748.44;;;8.13;52.88
40838;BME280;29632;49.168;9.848;2022-12-07T09:49:10;96751.59;;;8.17;52.56
40838;BME280;29632;49.168;9.848;2022-12-07T09:51:37;96748.19;;;8.16;52.59
40838;BME280;29632;49.168;9.848;2022-12-07T09:54:02;96748.03;;;8.18;52.92
40838;BME280;29632;49.168;9.848;2022-12-07T09:56:29;96749.69;;;8.19;53.00
40838;BME280;29632;49.168;9.848;2022-12-07T09:58:59;96752.53;;;8.16;52.70
40838;BME280;29632;49.168;9.848;2022-12-07T10:01:28;96753.19;;;8.08;52.59
40838;BME280;29632;49.168;9.848;2022-12-07T10:03:58;96744.28;;;8.01;52.46
40838;BME280;29632;49.168;9.848;2022-12-07T10:06:26;96737.84;;;7.95;53.22
40838;BME280;29632;49.168;9.848;2022-12-07T10:08:51;96736.19;;;7.94;53.40
40838;BME280;29632;49.168;9.848;2022-12-07T10:11:17;96739.59;;;7.94;53.13
40838;BME280;29632;49.168;9.848;2022-12-07T10:13:43;96732.78;;;7.93;52.91
40838;BME280;29632;49.168;9.848;2022-12-07T10:16:39;96726.75;;;7.93;53.28
40838;BME280;29632;49.168;9.848;2022-12-07T10:19:31;96724.16;;;7.93;52.94
40838;BME280;29632;49.168;9.848;2022-12-07T10:22:15;96731.00;;;7.94;52.70
40838;BME280;29632;49.168;9.848;2022-12-07T10:24:42;96723.22;;;7.94;52.99
40838;BME280;29632;49.168;9.848;2022-12-07T10:29:52;96723.22;;;7.94;53.12
40838;BME280;29632;49.168;9.848;2022-12-07T10:34:44;96723.59;;;7.89;53.29
40838;BME280;29632;49.168;9.848;2022-12-07T10:39:46;96716.78;;;7.88;52.85
40838;BME280;29632;49.168;9.848;2022-12-07T10:42:23;96713.13;;;7.91;52.66
40838;BME280;29632;49.168;9.848;2022-12-07T10:45:07;96712.03;;;7.93;53.23
40838;BME280;29632;49.168;9.848;2022-12-07T10:47:44;96717.25;;;7.93;53.16
40838;BME280;29632;49.168;9.848;2022-12-07T11:06:57;96696.19;;;7.87;53.03
40838;BME280;29632;49.168;9.848;2022-12-07T11:14:58;96694.09;;;7.81;53.04
40838;BME280;29632;49.168;9.848;2022-12-07T11:17:57;96686.59;;;7.78;53.26
40838;BME280;29632;49.168;9.848;2022-12-07T11:20:37;96690.56;;;7.82;53.39
40838;BME280;29632;49.168;9.848;2022-12-07T11:23:13;96686.75;;;7.86;53.10
40838;BME280;29632;49.168;9.848;2022-12-07T11:31:18;96679.50;;;7.80;53.26
40838;BME280;29632;49.168;9.848;2022-12-07T11:33:53;96677.84;;;7.79;53.51
40838;BME280;29632;49.168;9.848;2022-12-07T11:36:41;96675.25;;;7.79;53.14
40838;BME280;29632;49.168;9.848;2022-12-07T11:41:51;96669.25;;;7.78;53.07
40838;BME280;29632;49.168;9.848;2022-12-07T11:44:31;96667.34;;;7.80;53.23
40838;BME280;29632;49.168;9.848;2022-12-07T11:47:09;96669.00;;;7.81;53.38
40838;BME280;29632;49.168;9.848;2022-12-07T11:49:51;96669.69;;;7.83;52.94
40838;BME280;29632;49.168;9.848;2022-12-07T11:52:25;96671.72;;;7.80;52.95
40838;BME280;29632;49.168;9.848;2022-12-07T11:54:53;96664.06;;;7.78;53.23
40838;BME280;29632;49.168;9.848;2022-12-07T11:57:33;96657.47;;;7.74;53.41
40838;BME280;29632;49.168;9.848;2022-12-07T12:00:06;96657.47;;;7.74;53.74
40838;BME280;29632;49.168;9.848;2022-12-07T12:02:54;96648.38;;;7.80;52.99
40838;BME280;29632;49.168;9.848;2022-12-07T12:05:22;96656.03;;;7.81;53.25
40838;BME280;29632;49.168;9.848;2022-12-07T12:08:27;96653.28;;;7.83;53.67
40838;BME280;29632;49.168;9.848;2022-12-07T12:16:48;96641.97;;;7.84;52.75
40838;BME280;29632;49.168;9.848;2022-12-07T12:22:30;96645.25;;;7.86;53.38
40838;BME280;29632;49.168;9.848;2022-12-07T12:24:58;96637.22;;;7.89;53.47
40838;BME280;29632;49.168;9.848;2022-12-07T12:29:55;96632.47;;;7.94;53.41
40838;BME280;29632;49.168;9.848;2022-12-07T12:33:00;96631.25;;;7.98;53.28
40838;BME280;29632;49.168;9.848;2022-12-07T12:35:32;96635.09;;;8.04;52.89
40838;BME280;29632;49.168;9.848;2022-12-07T12:40:48;96625.66;;;8.03;52.98
40838;BME280;29632;49.168;9.848;2022-12-07T12:43:43;96630.59;;;8.06;53.21
40838;BME280;29632;49.168;9.848;2022-12-07T12:54:15;96627.16;;;8.05;53.08
40838;BME280;29632;49.168;9.848;2022-12-07T12:59:26;96628.25;;;8.03;53.14
40838;BME280;29632;49.168;9.848;2022-12-07T13:02:39;96617.50;;;8.07;53.17
40838;BME280;29632;49.168;9.848;2022-12-07T13:04:58;96615.34;;;8.12;53.24
40838;BME280;29632;49.168;9.848;2022-12-07T13:07:55;96617.78;;;8.14;53.20
40838;BME280;29632;49.168;9.848;2022-12-07T13:15:44;96613.00;;;8.09;53.33
40838;BME280;29632;49.168;9.848;2022-12-07T13:31:57;96594.81;;;8.00;53.75
40838;BME280;29632;49.168;9.848;2022-12-07T13:34:29;96594.81;;;8.00;53.75
40838;BME280;29632;49.168;9.848;2022-12-07T13:36:56;96595.50;;;8.02;53.75
40838;BME280;29632;49.168;9.848;2022-12-07T13:39:23;96590.84;;;8.05;53.24
40838;BME280;29632;49.168;9.848;2022-12-07T13:41:54;96594.84;;;8.09;53.64
40838;BME280;29632;49.168;9.848;2022-12-07T13:44:22;96594.16;;;8.07;53.37
40838;BME280;29632;49.168;9.848;2022-12-07T13:46:56;96594.16;;;8.07;53.02
40838;BME280;29632;49.168;9.848;2022-12-07T13:49:29;96593.44;;;8.05;53.43
40838;BME280;29632;49.168;9.848;2022-12-07T13:52:17;96597.13;;;8.03;53.52
40838;BME280;29632;49.168;9.848;2022-12-07T13:57:16;96591.28;;;8.01;53.57
40838;BME280;29632;49.168;9.848;2022-12-07T13:59:42;96596.84;;;7.96;53.70
40838;BME280;29632;49.168;9.848;2022-12-07T14:02:28;96593.44;;;7.96;53.71
40838;BME280;29632;49.168;9.848;2022-12-07T14:07:59;96588.25;;;8.05;53.17
40838;BME280;29632;49.168;9.848;2022-12-07T14:10:27;96595.91;;;8.07;53.54
40838;BME280;29632;49.168;9.848;2022-12-07T14:12:53;96591.28;;;8.10;53.62
40838;BME280;29632;49.168;9.848;2022-12-07T14:15:21;96601.94;;;8.17;53.63
40838;BME280;29632;49.168;9.848;2022-12-07T14:17:52;96594.59;;;8.22;53.45
40838;BME280;29632;49.168;9.848;2022-12-07T14:22:55;96603.91;;;8.25;53.10
40838;BME280;29632;49.168;9.848;2022-12-07T14:25:27;96598.28;;;8.29;53.08
40838;BME280;29632;49.168;9.848;2022-12-07T14:27:59;96602.41;;;8.32;53.32
40838;BME280;29632;49.168;9.848;2022-12-07T14:30:29;96600.50;;;8.34;53.02
40838;BME280;29632;49.168;9.848;2022-12-07T14:33:00;96605.53;;;8.36;53.30
40838;BME280;29632;49.168;9.848;2022-12-07T14:35:26;96597.75;;;8.36;52.74
40838;BME280;29632;49.168;9.848;2022-12-07T14:37:52;96593.50;;;8.35;53.40
40838;BME280;29632;49.168;9.848;2022-12-07T14:40:26;96600.09;;;8.39;53.15
40838;BME280;29632;49.168;9.848;2022-12-07T14:42:55;96592.00;;;8.42;53.12
40838;BME280;29632;49.168;9.848;2022-12-07T14:45:22;96592.72;;;8.44;52.90
40838;BME280;29632;49.168;9.848;2022-12-07T14:47:48;96590.00;;;8.45;53.21
40838;BME280;29632;49.168;9.848;2022-12-07T14:50:18;96590.97;;;8.44;52.98
40838;BME280;29632;49.168;9.848;2022-12-07T14:53:15;96590.00;;;8.45;52.95
40838;BME280;29632;49.168;9.848;2022-12-07T14:55:41;96594.13;;;8.48;53.34
40838;BME280;29632;49.168;9.848;2022-12-07T14:58:14;96580.88;;;8.51;53.08
40838;BME280;29632;49.168;9.848;2022-12-07T15:00:40;96584.69;;;8.57;52.72
40838;BME280;29632;49.168;9.848;2022-12-07T15:03:05;96583.88;;;8.56;52.98
40838;BME280;29632;49.168;9.848;2022-12-07T15:05:31;96584.81;;;8.55;52.66
40838;BME280;29632;49.168;9.848;2022-12-07T15:07:58;96580.19;;;8.59;53.18
40838;BME280;29632;49.168;9.848;2022-12-07T15:10:25;96585.25;;;8.60;52.86
40838;BME280;29632;49.168;9.848;2022-12-07T15:12:59;96587.44;;;8.65;53.31
40838;BME280;29632;49.168;9.848;2022-12-07T15:15:44;96585.38;;;8.68;52.94